Name Machine Type Up Locked Locked Since Locked By OS Type OS Version Arch Description
smithi109.front.sepia.ceph.com smithi True True 2019-10-21 17:30:39.477243 scheduled_yuriw@teuthology ubuntu 18.04 x86_64 /home/teuthworker/archive/yuriw-2019-10-21_15:34:09-fs-wip-yuri8-testing-2019-10-20-2007-luminous-testing-basic-smithi/4431679
Status Job ID Links Posted Started Updated
Runtime
Duration
In Waiting
Machine Teuthology Branch OS Type OS Version
running 4431679 2019-10-21 15:34:32 2019-10-21 17:23:18 2019-10-21 17:36:17 0:13:48 smithi master
fail 4431639 2019-10-21 15:33:50 2019-10-21 16:37:13 2019-10-21 17:31:13 0:54:00 0:36:11 0:17:49 smithi master
Failure Reason:

reached maximum tries (150) after waiting for 900 seconds

fail 4431279 2019-10-21 10:27:11 2019-10-21 10:47:46 2019-10-21 11:23:45 0:35:59 0:24:15 0:11:44 smithi master centos 7.6
Failure Reason:

"2019-10-21T11:13:49.993201+0000 mon.a (mon.0) 394 : cluster [WRN] Health check failed: 1 slow ops, oldest one blocked for 1571656423 sec, osd.4 has slow ops (SLOW_OPS)" in cluster log

pass 4431023 2019-10-21 07:00:36 2019-10-21 08:27:54 2019-10-21 10:23:54 1:56:00 0:14:13 1:41:47 smithi master
pass 4431018 2019-10-21 07:00:33 2019-10-21 08:23:51 2019-10-21 09:49:52 1:26:01 0:15:11 1:10:50 smithi master
pass 4428282 2019-10-21 02:31:38 2019-10-21 14:40:41 2019-10-21 15:14:40 0:33:59 0:14:07 0:19:52 smithi master ubuntu 18.04
pass 4428227 2019-10-21 02:30:58 2019-10-21 14:12:27 2019-10-21 14:50:26 0:37:59 0:24:25 0:13:34 smithi master centos 7.4
pass 4428094 2019-10-21 02:02:31 2019-10-21 13:28:03 2019-10-21 14:14:02 0:45:59 0:17:41 0:28:18 smithi master ubuntu 18.04
pass 4428078 2019-10-21 02:02:19 2019-10-21 13:18:02 2019-10-21 13:46:01 0:27:59 0:20:07 0:07:52 smithi master rhel 7.7
pass 4428034 2019-10-21 02:01:47 2019-10-21 12:34:36 2019-10-21 13:18:36 0:44:00 0:34:24 0:09:36 smithi master centos 7.6
pass 4427986 2019-10-21 01:47:32 2019-10-21 11:56:19 2019-10-21 12:36:18 0:39:59 0:15:03 0:24:56 smithi master rhel 7.6
pass 4427929 2019-10-20 19:58:47 2019-10-20 20:12:49 2019-10-20 20:52:49 0:40:00 0:17:54 0:22:06 smithi master
pass 4427890 2019-10-20 19:52:31 2019-10-20 19:53:17 2019-10-20 20:21:16 0:27:59 0:13:54 0:14:05 smithi master centos 7.4
fail 4427793 2019-10-20 13:25:43 2019-10-21 11:35:59 2019-10-21 16:08:03 4:32:04 0:45:45 3:46:19 smithi master rhel 7.6
Failure Reason:

Test failure: test_stale_read_caps (tasks.cephfs.test_client_recovery.TestClientRecovery)

fail 4427781 2019-10-20 13:25:34 2019-10-21 11:30:11 2019-10-21 16:44:15 5:14:04 0:20:05 4:53:59 smithi master centos 7.5
Failure Reason:

Test failure: test_files_throttle (tasks.cephfs.test_strays.TestStrays)

pass 4427766 2019-10-20 13:15:48 2019-10-21 11:23:37 2019-10-21 12:15:36 0:51:59 0:39:25 0:12:34 smithi master
pass 4427765 2019-10-20 13:15:48 2019-10-20 20:41:07 2019-10-20 21:19:06 0:37:59 0:17:28 0:20:31 smithi master
pass 4427674 2019-10-20 07:05:33 2019-10-21 10:10:14 2019-10-21 10:50:14 0:40:00 0:16:34 0:23:26 smithi master centos 7.6
dead 4427436 2019-10-20 07:02:35 2019-10-21 00:35:53 2019-10-21 10:00:03 9:24:10 smithi master centos 7.6
Failure Reason:

SSH connection to smithi110 was lost: 'rpm -q kernel --last | head -n 1'

dead 4427118 2019-10-20 04:11:08 2019-10-20 21:23:31 2019-10-21 09:25:57 12:02:26 smithi master